THA127 VTBS-RJTT
Flight info
| Callsign | THA127 |
|---|---|
| Flight time | 5h 27m |
| Altitude | 35000 |
| Route | LIPLI1E LIPLI Y16 BUTRA A1 PAPRA/K0922F350 A1 IKELA/N0498F350 DCT MORTU/N0493F370 DCT NOBAD DCT KAPLI G86 HCN J7 PICHU Q13 IGURU Y57 SUKBO Y571 BILLY Y21 AKSEL |
| Aircraft | B77W/H-SDE1E2E3FGHIJ2J3J4J5M1RWXY/LB1D1 |
Departure
| Time | 2026-05-06 06:36 |
|---|---|
| Airport | Suvarnabhumi Airport (VTBS) |
Arrival
| Time | 2026-05-06 12:03 |
|---|---|
| Airport | Tokyo Haneda International Airport (RJTT) |
| Time | Latitude | Longitude | Altitude | Speed | Heading |
|---|---|---|---|---|---|
| 2026-05-06 06:05 | 13.68111 | 100.74899 | 18 ft | 0 kts | 14° |
| 2026-05-06 06:19 | 13.68101 | 100.74897 | 19 ft | 2 kts | 10° |
| 2026-05-06 06:20 | 13.68097 | 100.74896 | 20 ft | 0 kts | 11° |
| 2026-05-06 06:20 | 13.68098 | 100.74896 | 19 ft | 0 kts | 11° |
| 2026-05-06 06:20 | 13.68091 | 100.74895 | 20 ft | 4 kts | 11° |
| 2026-05-06 06:21 | 13.68066 | 100.74890 | 20 ft | 4 kts | 11° |
| 2026-05-06 06:21 | 13.68042 | 100.74885 | 18 ft | 4 kts | 11° |
| 2026-05-06 06:21 | 13.68018 | 100.74881 | 21 ft | 4 kts | 344° |
| 2026-05-06 06:21 | 13.68003 | 100.74890 | 21 ft | 0 kts | 314° |
| 2026-05-06 06:22 | 13.68005 | 100.74886 | 20 ft | 3 kts | 308° |
| 2026-05-06 06:22 | 13.68017 | 100.74864 | 19 ft | 4 kts | 298° |
| 2026-05-06 06:22 | 13.68029 | 100.74835 | 18 ft | 4 kts | 288° |
| 2026-05-06 06:23 | 13.68032 | 100.74826 | 18 ft | 0 kts | 287° |
| 2026-05-06 06:25 | 13.68032 | 100.74823 | 18 ft | 2 kts | 287° |
| 2026-05-06 06:26 | 13.68045 | 100.74781 | 18 ft | 14 kts | 287° |
| 2026-05-06 06:26 | 13.68069 | 100.74682 | 18 ft | 14 kts | 284° |
| 2026-05-06 06:26 | 13.68093 | 100.74583 | 18 ft | 14 kts | 283° |
| 2026-05-06 06:26 | 13.68116 | 100.74484 | 18 ft | 14 kts | 283° |
| 2026-05-06 06:27 | 13.68143 | 100.74385 | 19 ft | 14 kts | 287° |
| 2026-05-06 06:27 | 13.68169 | 100.74286 | 18 ft | 14 kts | 285° |
| 2026-05-06 06:27 | 13.68194 | 100.74187 | 18 ft | 14 kts | 284° |
| 2026-05-06 06:27 | 13.68221 | 100.74092 | 18 ft | 14 kts | 300° |
| 2026-05-06 06:28 | 13.68308 | 100.74072 | 18 ft | 14 kts | 9° |
| 2026-05-06 06:28 | 13.68401 | 100.74094 | 18 ft | 14 kts | 14° |
| 2026-05-06 06:28 | 13.68448 | 100.74106 | 18 ft | 0 kts | 14° |
| 2026-05-06 06:29 | 13.68466 | 100.74111 | 18 ft | 8 kts | 14° |
| 2026-05-06 06:29 | 13.68524 | 100.74125 | 18 ft | 9 kts | 14° |
| 2026-05-06 06:29 | 13.68583 | 100.74140 | 18 ft | 9 kts | 14° |
| 2026-05-06 06:30 | 13.68681 | 100.74166 | 18 ft | 21 kts | 14° |
| 2026-05-06 06:30 | 13.68860 | 100.74214 | 19 ft | 29 kts | 14° |
| 2026-05-06 06:30 | 13.69034 | 100.74261 | 18 ft | 26 kts | 14° |
| 2026-05-06 06:30 | 13.69187 | 100.74300 | 18 ft | 21 kts | 13° |
| 2026-05-06 06:31 | 13.69329 | 100.74336 | 18 ft | 21 kts | 15° |
| 2026-05-06 06:31 | 13.69467 | 100.74374 | 18 ft | 19 kts | 14° |
| 2026-05-06 06:31 | 13.69595 | 100.74408 | 18 ft | 19 kts | 14° |
| 2026-05-06 06:31 | 13.69723 | 100.74441 | 18 ft | 19 kts | 14° |
| 2026-05-06 06:32 | 13.69850 | 100.74474 | 18 ft | 19 kts | 14° |
| 2026-05-06 06:32 | 13.69978 | 100.74507 | 18 ft | 19 kts | 15° |
| 2026-05-06 06:32 | 13.70105 | 100.74543 | 18 ft | 19 kts | 14° |
| 2026-05-06 06:32 | 13.70227 | 100.74574 | 18 ft | 15 kts | 13° |
| 2026-05-06 06:33 | 13.70309 | 100.74534 | 18 ft | 15 kts | 291° |
| 2026-05-06 06:33 | 13.70336 | 100.74443 | 18 ft | 13 kts | 284° |
| 2026-05-06 06:33 | 13.70331 | 100.74354 | 19 ft | 13 kts | 251° |
| 2026-05-06 06:33 | 13.70270 | 100.74296 | 19 ft | 13 kts | 203° |
| 2026-05-06 06:34 | 13.70198 | 100.74276 | 19 ft | 0 kts | 194° |
| 2026-05-06 06:35 | 13.70181 | 100.74271 | 19 ft | 13 kts | 194° |
| 2026-05-06 06:35 | 13.69890 | 100.74194 | 18 ft | 90 kts | 194° |
| 2026-05-06 06:35 | 13.68945 | 100.73956 | 30 ft | 187 kts | 192° |
| 2026-05-06 06:36 | 13.67585 | 100.73575 | 907 ft | 205 kts | 193° |
| 2026-05-06 06:36 | 13.66183 | 100.73226 | 2247 ft | 212 kts | 193° |
| 2026-05-06 06:36 | 13.64732 | 100.72789 | 3308 ft | 230 kts | 194° |
| 2026-05-06 06:36 | 13.63110 | 100.72364 | 3545 ft | 250 kts | 192° |
| 2026-05-06 06:37 | 13.61376 | 100.71933 | 3857 ft | 262 kts | 190° |
| 2026-05-06 06:37 | 13.59556 | 100.71950 | 4333 ft | 265 kts | 159° |
| 2026-05-06 06:37 | 13.58033 | 100.72921 | 4985 ft | 263 kts | 136° |
| 2026-05-06 06:37 | 13.56706 | 100.74235 | 5630 ft | 267 kts | 135° |
| 2026-05-06 06:38 | 13.55369 | 100.75564 | 5987 ft | 268 kts | 135° |
| 2026-05-06 06:38 | 13.54014 | 100.76913 | 6014 ft | 272 kts | 135° |
| 2026-05-06 06:38 | 13.52644 | 100.78270 | 6671 ft | 274 kts | 135° |
| 2026-05-06 06:38 | 13.51507 | 100.79826 | 7425 ft | 278 kts | 111° |
| 2026-05-06 06:39 | 13.51186 | 100.81788 | 8216 ft | 280 kts | 89° |
| 2026-05-06 06:39 | 13.51304 | 100.83814 | 8947 ft | 288 kts | 86° |
| 2026-05-06 06:39 | 13.51438 | 100.85877 | 9820 ft | 291 kts | 86° |
| 2026-05-06 06:39 | 13.51569 | 100.87968 | 10592 ft | 295 kts | 86° |
| 2026-05-06 06:40 | 13.51700 | 100.90084 | 11374 ft | 299 kts | 86° |
| 2026-05-06 06:40 | 13.51832 | 100.92266 | 11887 ft | 316 kts | 86° |
| 2026-05-06 06:40 | 13.51972 | 100.94615 | 12075 ft | 342 kts | 86° |
| 2026-05-06 06:40 | 13.52118 | 100.97110 | 12269 ft | 367 kts | 86° |
| 2026-05-06 06:41 | 13.52275 | 100.99801 | 12595 ft | 385 kts | 86° |
| 2026-05-06 06:41 | 13.52438 | 101.02585 | 13233 ft | 394 kts | 86° |
| 2026-05-06 06:41 | 13.52677 | 101.05404 | 13816 ft | 400 kts | 79° |
| 2026-05-06 06:41 | 13.53603 | 101.08102 | 14281 ft | 403 kts | 64° |
| 2026-05-06 06:42 | 13.54842 | 101.10712 | 14892 ft | 408 kts | 64° |
| 2026-05-06 06:42 | 13.56089 | 101.13338 | 15665 ft | 410 kts | 64° |
| 2026-05-06 06:42 | 13.57331 | 101.15983 | 16372 ft | 413 kts | 64° |
| 2026-05-06 06:42 | 13.58576 | 101.18670 | 16990 ft | 419 kts | 64° |
| 2026-05-06 06:43 | 13.59825 | 101.21394 | 17633 ft | 423 kts | 65° |
| 2026-05-06 06:43 | 13.61081 | 101.24152 | 18256 ft | 427 kts | 65° |
| 2026-05-06 06:43 | 13.62337 | 101.26924 | 18838 ft | 430 kts | 65° |
| 2026-05-06 06:43 | 13.63607 | 101.29730 | 19403 ft | 434 kts | 65° |
| 2026-05-06 06:44 | 13.64884 | 101.32556 | 19952 ft | 438 kts | 65° |
| 2026-05-06 06:44 | 13.66172 | 101.35408 | 20464 ft | 442 kts | 65° |
| 2026-05-06 06:44 | 13.67475 | 101.38293 | 21002 ft | 446 kts | 65° |
| 2026-05-06 06:44 | 13.68773 | 101.41167 | 21523 ft | 450 kts | 65° |
| 2026-05-06 06:45 | 13.70098 | 101.44103 | 22037 ft | 453 kts | 65° |
| 2026-05-06 06:45 | 13.71432 | 101.47059 | 22541 ft | 457 kts | 65° |
| 2026-05-06 06:45 | 13.72777 | 101.50039 | 23043 ft | 461 kts | 65° |
| 2026-05-06 06:45 | 13.74130 | 101.53041 | 23501 ft | 465 kts | 65° |
| 2026-05-06 06:46 | 13.75497 | 101.56073 | 23905 ft | 468 kts | 65° |
| 2026-05-06 06:46 | 13.76869 | 101.59117 | 24326 ft | 470 kts | 65° |
| 2026-05-06 06:46 | 13.78247 | 101.62176 | 24740 ft | 473 kts | 65° |
| 2026-05-06 06:46 | 13.79634 | 101.65258 | 25146 ft | 476 kts | 65° |
| 2026-05-06 06:47 | 13.81031 | 101.68360 | 25546 ft | 478 kts | 65° |
| 2026-05-06 06:47 | 13.82432 | 101.71475 | 25913 ft | 481 kts | 65° |
| 2026-05-06 06:47 | 13.83841 | 101.74609 | 26293 ft | 484 kts | 65° |
| 2026-05-06 06:47 | 13.85241 | 101.77722 | 26666 ft | 487 kts | 65° |
| 2026-05-06 06:48 | 13.86748 | 101.80829 | 26946 ft | 487 kts | 57° |
| 2026-05-06 06:48 | 13.88949 | 101.83495 | 27136 ft | 493 kts | 40° |
| 2026-05-06 06:48 | 13.91812 | 101.85424 | 27476 ft | 493 kts | 24° |
| 2026-05-06 06:48 | 13.94985 | 101.86750 | 27788 ft | 494 kts | 21° |
| 2026-05-06 06:49 | 13.98191 | 101.88078 | 28070 ft | 498 kts | 22° |
| 2026-05-06 06:49 | 14.01397 | 101.89455 | 28382 ft | 500 kts | 23° |
| 2026-05-06 06:49 | 14.04602 | 101.90872 | 28712 ft | 502 kts | 23° |
| 2026-05-06 06:49 | 14.07810 | 101.92310 | 29031 ft | 504 kts | 23° |
| 2026-05-06 06:50 | 14.11033 | 101.93754 | 29322 ft | 506 kts | 23° |
| 2026-05-06 06:50 | 14.14170 | 101.95377 | 29467 ft | 507 kts | 34° |
| 2026-05-06 06:50 | 14.16791 | 101.97753 | 29592 ft | 511 kts | 50° |
| 2026-05-06 06:50 | 14.18791 | 102.00777 | 29860 ft | 512 kts | 63° |
| 2026-05-06 06:51 | 14.20054 | 102.04206 | 30102 ft | 510 kts | 72° |
| 2026-05-06 06:51 | 14.21095 | 102.07714 | 30302 ft | 512 kts | 73° |
| 2026-05-06 06:51 | 14.22135 | 102.11226 | 30618 ft | 511 kts | 73° |
| 2026-05-06 06:51 | 14.23187 | 102.14711 | 30993 ft | 509 kts | 72° |
| 2026-05-06 06:52 | 14.24256 | 102.18174 | 31360 ft | 507 kts | 72° |
| 2026-05-06 06:52 | 14.25342 | 102.21632 | 31701 ft | 506 kts | 72° |
| 2026-05-06 06:52 | 14.26436 | 102.25083 | 32024 ft | 506 kts | 71° |
| 2026-05-06 06:52 | 14.27516 | 102.28478 | 32336 ft | 506 kts | 71° |
| 2026-05-06 06:53 | 14.28610 | 102.31922 | 32652 ft | 505 kts | 71° |
| 2026-05-06 06:53 | 14.29702 | 102.35365 | 32991 ft | 504 kts | 71° |
| 2026-05-06 06:53 | 14.30790 | 102.38801 | 33330 ft | 503 kts | 71° |
| 2026-05-06 06:53 | 14.31877 | 102.42237 | 33651 ft | 503 kts | 71° |
| 2026-05-06 06:54 | 14.32959 | 102.45666 | 33952 ft | 503 kts | 71° |
| 2026-05-06 06:54 | 14.34040 | 102.49091 | 34238 ft | 502 kts | 71° |
| 2026-05-06 06:54 | 14.35120 | 102.52514 | 34507 ft | 501 kts | 71° |
| 2026-05-06 06:54 | 14.36199 | 102.55934 | 34765 ft | 502 kts | 71° |
| 2026-05-06 06:55 | 14.37282 | 102.59370 | 34813 ft | 505 kts | 72° |
| 2026-05-06 06:55 | 14.39580 | 102.66228 | 34879 ft | 505 kts | 69° |
| 2026-05-06 06:56 | 14.42056 | 102.72929 | 34870 ft | 500 kts | 69° |
| 2026-05-06 06:56 | 14.44526 | 102.79610 | 34877 ft | 497 kts | 69° |
| 2026-05-06 06:57 | 14.46948 | 102.86280 | 34884 ft | 496 kts | 69° |
| 2026-05-06 06:57 | 14.49352 | 102.92957 | 34884 ft | 497 kts | 69° |
| 2026-05-06 06:58 | 14.51758 | 102.99649 | 34888 ft | 498 kts | 69° |
| 2026-05-06 06:58 | 14.54173 | 103.06371 | 34886 ft | 500 kts | 69° |
| 2026-05-06 06:59 | 14.56592 | 103.13106 | 34884 ft | 501 kts | 69° |
| 2026-05-06 06:59 | 14.59016 | 103.19860 | 34892 ft | 502 kts | 69° |
| 2026-05-06 07:00 | 14.61427 | 103.26587 | 34891 ft | 502 kts | 69° |
| 2026-05-06 07:00 | 14.63848 | 103.33345 | 34891 ft | 502 kts | 69° |
| 2026-05-06 07:01 | 14.66267 | 103.40109 | 34893 ft | 501 kts | 69° |
| 2026-05-06 07:01 | 14.68682 | 103.46866 | 34895 ft | 501 kts | 69° |
| 2026-05-06 07:02 | 14.71091 | 103.53615 | 34895 ft | 501 kts | 69° |
| 2026-05-06 07:02 | 14.73499 | 103.60367 | 34896 ft | 500 kts | 70° |
| 2026-05-06 07:03 | 14.75888 | 103.67074 | 34893 ft | 500 kts | 70° |
| 2026-05-06 07:03 | 14.78293 | 103.73832 | 34894 ft | 500 kts | 70° |
| 2026-05-06 07:04 | 14.80694 | 103.80593 | 34891 ft | 501 kts | 70° |
| 2026-05-06 07:04 | 14.83051 | 103.87372 | 34885 ft | 502 kts | 70° |
| 2026-05-06 07:05 | 14.85388 | 103.94164 | 34886 ft | 502 kts | 70° |
| 2026-05-06 07:05 | 14.87736 | 104.00981 | 34884 ft | 502 kts | 70° |
| 2026-05-06 07:06 | 14.90085 | 104.07794 | 34882 ft | 503 kts | 70° |
| 2026-05-06 07:06 | 14.92434 | 104.14607 | 34881 ft | 503 kts | 70° |
| 2026-05-06 07:07 | 14.94767 | 104.21382 | 34884 ft | 503 kts | 70° |
| 2026-05-06 07:07 | 14.97111 | 104.28199 | 34879 ft | 503 kts | 70° |
| 2026-05-06 07:08 | 14.99455 | 104.35022 | 34879 ft | 503 kts | 70° |
| 2026-05-06 07:08 | 15.01797 | 104.41845 | 34875 ft | 503 kts | 70° |
| 2026-05-06 07:09 | 15.03740 | 104.47513 | 34873 ft | 503 kts | 70° |
| 2026-05-06 07:09 | 15.06076 | 104.54335 | 34877 ft | 503 kts | 70° |
| 2026-05-06 07:10 | 15.08804 | 104.62310 | 34871 ft | 503 kts | 70° |
| 2026-05-06 07:10 | 15.10743 | 104.67983 | 34867 ft | 502 kts | 70° |
| 2026-05-06 07:11 | 15.13070 | 104.74800 | 34865 ft | 502 kts | 70° |
| 2026-05-06 07:11 | 15.15396 | 104.81622 | 34859 ft | 502 kts | 70° |
| 2026-05-06 07:12 | 15.17704 | 104.88398 | 34858 ft | 502 kts | 70° |
| 2026-05-06 07:12 | 15.20025 | 104.95219 | 34858 ft | 502 kts | 71° |
| 2026-05-06 07:13 | 15.22345 | 105.02047 | 34858 ft | 502 kts | 71° |
| 2026-05-06 07:13 | 15.24662 | 105.08873 | 34866 ft | 502 kts | 71° |
| 2026-05-06 07:14 | 15.26980 | 105.15708 | 34868 ft | 502 kts | 71° |
| 2026-05-06 07:14 | 15.29295 | 105.22543 | 34873 ft | 502 kts | 71° |
| 2026-05-06 07:15 | 15.31589 | 105.29321 | 34877 ft | 502 kts | 71° |
| 2026-05-06 07:15 | 15.33898 | 105.36155 | 34881 ft | 502 kts | 71° |
| 2026-05-06 07:16 | 15.36204 | 105.42988 | 34880 ft | 502 kts | 71° |
| 2026-05-06 07:16 | 15.38513 | 105.49834 | 34885 ft | 503 kts | 71° |
| 2026-05-06 07:17 | 15.40819 | 105.56681 | 34883 ft | 503 kts | 71° |
| 2026-05-06 07:17 | 15.42798 | 105.63627 | 34884 ft | 503 kts | 77° |
| 2026-05-06 07:18 | 15.44330 | 105.70616 | 34879 ft | 503 kts | 78° |
| 2026-05-06 07:18 | 15.45856 | 105.77684 | 34879 ft | 504 kts | 77° |
| 2026-05-06 07:19 | 15.47415 | 105.84765 | 34882 ft | 504 kts | 77° |
| 2026-05-06 07:19 | 15.48991 | 105.91849 | 34881 ft | 504 kts | 77° |
| 2026-05-06 07:20 | 15.50569 | 105.98940 | 34887 ft | 505 kts | 77° |
| 2026-05-06 07:20 | 15.52135 | 106.05996 | 34883 ft | 505 kts | 77° |
| 2026-05-06 07:21 | 15.53708 | 106.13101 | 34893 ft | 506 kts | 77° |
| 2026-05-06 07:21 | 15.55280 | 106.20214 | 34891 ft | 506 kts | 77° |
| 2026-05-06 07:22 | 15.56850 | 106.27330 | 34887 ft | 506 kts | 77° |
| 2026-05-06 07:22 | 15.58420 | 106.34457 | 34885 ft | 507 kts | 77° |
| 2026-05-06 07:23 | 15.59991 | 106.41597 | 34876 ft | 508 kts | 77° |
| 2026-05-06 07:23 | 15.61560 | 106.48742 | 34883 ft | 508 kts | 77° |
| 2026-05-06 07:24 | 15.63128 | 106.55895 | 34876 ft | 508 kts | 77° |
| 2026-05-06 07:24 | 15.64696 | 106.63055 | 34885 ft | 509 kts | 77° |
| 2026-05-06 07:25 | 15.66254 | 106.70187 | 34891 ft | 509 kts | 77° |
| 2026-05-06 07:25 | 15.67818 | 106.77354 | 34895 ft | 509 kts | 77° |
| 2026-05-06 07:26 | 15.69378 | 106.84520 | 34905 ft | 508 kts | 77° |
| 2026-05-06 07:26 | 15.70927 | 106.91639 | 34915 ft | 508 kts | 77° |
| 2026-05-06 07:27 | 15.72482 | 106.98807 | 34923 ft | 508 kts | 77° |
| 2026-05-06 07:27 | 15.74033 | 107.05961 | 34934 ft | 508 kts | 77° |
| 2026-05-06 07:28 | 15.75583 | 107.13127 | 34937 ft | 508 kts | 77° |
| 2026-05-06 07:28 | 15.78196 | 107.23785 | 34930 ft | 508 kts | 73° |
| 2026-05-06 07:29 | 15.80251 | 107.30800 | 34927 ft | 508 kts | 72° |
| 2026-05-06 07:29 | 15.82293 | 107.37816 | 34926 ft | 508 kts | 73° |
| 2026-05-06 07:30 | 15.84310 | 107.44858 | 34922 ft | 509 kts | 73° |
| 2026-05-06 07:30 | 15.86318 | 107.51911 | 34910 ft | 510 kts | 73° |
| 2026-05-06 07:31 | 15.88318 | 107.58931 | 34903 ft | 510 kts | 73° |
| 2026-05-06 07:31 | 15.90331 | 107.66005 | 34891 ft | 510 kts | 73° |
| 2026-05-06 07:32 | 15.92294 | 107.73095 | 34887 ft | 511 kts | 73° |
| 2026-05-06 07:32 | 15.94231 | 107.80208 | 34880 ft | 511 kts | 73° |
| 2026-05-06 07:33 | 15.96178 | 107.87324 | 34878 ft | 512 kts | 73° |
| 2026-05-06 07:33 | 15.98147 | 107.94396 | 34871 ft | 511 kts | 72° |
| 2026-05-06 07:34 | 16.00153 | 108.01479 | 34860 ft | 511 kts | 72° |
| 2026-05-06 07:34 | 16.02153 | 108.08578 | 34862 ft | 511 kts | 72° |
| 2026-05-06 07:35 | 16.04166 | 108.15662 | 34869 ft | 510 kts | 70° |
| 2026-05-06 07:35 | 16.07019 | 108.22404 | 34857 ft | 509 kts | 59° |
| 2026-05-06 07:36 | 16.10826 | 108.28543 | 34851 ft | 508 kts | 54° |
| 2026-05-06 07:36 | 16.14832 | 108.34607 | 34855 ft | 508 kts | 54° |
| 2026-05-06 07:37 | 16.18798 | 108.40693 | 34864 ft | 508 kts | 54° |
| 2026-05-06 07:37 | 16.22732 | 108.46796 | 34861 ft | 508 kts | 54° |
| 2026-05-06 07:38 | 16.26667 | 108.52915 | 34864 ft | 508 kts | 54° |
| 2026-05-06 07:38 | 16.30571 | 108.58985 | 34866 ft | 508 kts | 54° |
| 2026-05-06 07:39 | 16.34507 | 108.65107 | 34864 ft | 508 kts | 54° |
| 2026-05-06 07:39 | 16.38493 | 108.71188 | 34863 ft | 508 kts | 53° |
| 2026-05-06 07:40 | 16.42567 | 108.77224 | 34863 ft | 509 kts | 53° |
| 2026-05-06 07:40 | 16.46634 | 108.83271 | 34860 ft | 509 kts | 53° |
| 2026-05-06 07:41 | 16.50683 | 108.89330 | 34861 ft | 509 kts | 53° |
| 2026-05-06 07:41 | 16.54702 | 108.95353 | 34863 ft | 510 kts | 53° |
| 2026-05-06 07:42 | 16.58723 | 109.01439 | 34864 ft | 510 kts | 54° |
| 2026-05-06 07:42 | 16.62689 | 109.07581 | 34863 ft | 510 kts | 54° |
| 2026-05-06 07:43 | 16.66647 | 109.13720 | 34862 ft | 510 kts | 54° |
| 2026-05-06 07:43 | 16.70597 | 109.19829 | 34865 ft | 510 kts | 54° |
| 2026-05-06 07:44 | 16.74566 | 109.25966 | 34867 ft | 510 kts | 54° |
| 2026-05-06 07:44 | 16.78534 | 109.32110 | 34863 ft | 510 kts | 54° |
| 2026-05-06 07:45 | 16.82501 | 109.38258 | 34862 ft | 510 kts | 54° |
| 2026-05-06 07:45 | 16.86473 | 109.44401 | 34864 ft | 510 kts | 54° |
| 2026-05-06 07:46 | 16.90454 | 109.50539 | 34866 ft | 510 kts | 54° |
| 2026-05-06 07:46 | 16.94402 | 109.56634 | 34869 ft | 510 kts | 54° |
| 2026-05-06 07:47 | 16.98374 | 109.62777 | 34869 ft | 510 kts | 54° |
| 2026-05-06 07:47 | 17.02345 | 109.68924 | 34870 ft | 509 kts | 54° |
| 2026-05-06 07:48 | 17.06308 | 109.75065 | 34868 ft | 509 kts | 54° |
| 2026-05-06 07:48 | 17.10271 | 109.81211 | 34868 ft | 509 kts | 54° |
| 2026-05-06 07:49 | 17.14204 | 109.87317 | 34868 ft | 509 kts | 54° |
| 2026-05-06 07:49 | 17.18160 | 109.93462 | 34867 ft | 509 kts | 54° |
| 2026-05-06 07:50 | 17.22119 | 109.99620 | 34872 ft | 509 kts | 54° |
| 2026-05-06 07:50 | 17.26066 | 110.05762 | 34873 ft | 509 kts | 54° |
| 2026-05-06 07:51 | 17.29987 | 110.11871 | 34873 ft | 508 kts | 54° |
| 2026-05-06 07:51 | 17.33928 | 110.18017 | 34869 ft | 508 kts | 54° |
| 2026-05-06 07:52 | 17.37863 | 110.24159 | 34870 ft | 508 kts | 54° |
| 2026-05-06 07:52 | 17.41798 | 110.30305 | 34870 ft | 508 kts | 54° |
| 2026-05-06 07:53 | 17.45760 | 110.36429 | 34869 ft | 508 kts | 54° |
| 2026-05-06 07:53 | 17.49741 | 110.42540 | 34872 ft | 508 kts | 54° |
| 2026-05-06 07:54 | 17.53719 | 110.48658 | 34873 ft | 508 kts | 54° |
| 2026-05-06 07:54 | 17.57690 | 110.54784 | 34873 ft | 508 kts | 54° |
| 2026-05-06 07:55 | 17.61629 | 110.60870 | 34871 ft | 508 kts | 54° |
| 2026-05-06 07:55 | 17.65599 | 110.67009 | 34873 ft | 508 kts | 54° |
| 2026-05-06 07:56 | 17.69566 | 110.73148 | 34872 ft | 508 kts | 54° |
| 2026-05-06 07:56 | 17.73535 | 110.79295 | 34872 ft | 508 kts | 54° |
| 2026-05-06 07:57 | 17.77498 | 110.85439 | 34874 ft | 508 kts | 54° |
| 2026-05-06 07:57 | 17.81460 | 110.91587 | 34870 ft | 508 kts | 54° |
| 2026-05-06 07:58 | 17.85394 | 110.97698 | 34872 ft | 509 kts | 54° |
| 2026-05-06 07:58 | 17.89355 | 111.03856 | 34873 ft | 509 kts | 54° |
| 2026-05-06 07:59 | 17.93317 | 111.10021 | 34871 ft | 509 kts | 54° |
| 2026-05-06 07:59 | 17.97275 | 111.16185 | 34870 ft | 509 kts | 54° |
| 2026-05-06 08:00 | 18.01229 | 111.22350 | 34872 ft | 509 kts | 54° |
| 2026-05-06 08:00 | 18.04515 | 111.27477 | 34873 ft | 509 kts | 54° |
| 2026-05-06 08:01 | 18.08467 | 111.33649 | 34872 ft | 509 kts | 54° |
| 2026-05-06 08:01 | 18.13059 | 111.40828 | 34871 ft | 509 kts | 54° |
| 2026-05-06 08:02 | 18.17009 | 111.47009 | 34869 ft | 509 kts | 54° |
| 2026-05-06 08:02 | 18.20955 | 111.53191 | 34870 ft | 509 kts | 54° |
| 2026-05-06 08:03 | 18.24235 | 111.58332 | 34874 ft | 509 kts | 54° |
| 2026-05-06 08:03 | 18.28183 | 111.64528 | 34877 ft | 509 kts | 54° |
| 2026-05-06 08:04 | 18.32128 | 111.70724 | 34874 ft | 509 kts | 54° |
| 2026-05-06 08:04 | 18.36068 | 111.76919 | 34880 ft | 509 kts | 54° |
| 2026-05-06 08:05 | 18.40007 | 111.83118 | 34879 ft | 509 kts | 54° |
| 2026-05-06 08:05 | 18.43949 | 111.89328 | 34873 ft | 509 kts | 54° |
| 2026-05-06 08:06 | 18.47883 | 111.95532 | 34872 ft | 509 kts | 54° |
| 2026-05-06 08:06 | 18.51790 | 112.01698 | 34878 ft | 510 kts | 54° |
| 2026-05-06 08:07 | 18.55721 | 112.07910 | 34876 ft | 510 kts | 54° |
| 2026-05-06 08:07 | 18.59657 | 112.14135 | 34883 ft | 510 kts | 54° |
| 2026-05-06 08:08 | 18.63590 | 112.20362 | 34880 ft | 510 kts | 54° |
| 2026-05-06 08:08 | 18.67383 | 112.26689 | 34883 ft | 511 kts | 60° |
| 2026-05-06 08:09 | 18.70696 | 112.33332 | 34884 ft | 512 kts | 61° |
| 2026-05-06 08:09 | 18.73960 | 112.40017 | 34879 ft | 512 kts | 61° |
| 2026-05-06 08:10 | 18.77246 | 112.46691 | 34881 ft | 512 kts | 60° |
| 2026-05-06 08:10 | 18.80531 | 112.53315 | 34884 ft | 513 kts | 60° |
| 2026-05-06 08:11 | 18.83844 | 112.59987 | 34882 ft | 513 kts | 60° |
| 2026-05-06 08:11 | 18.87153 | 112.66661 | 34882 ft | 513 kts | 60° |
| 2026-05-06 08:12 | 18.90459 | 112.73341 | 34887 ft | 513 kts | 60° |
| 2026-05-06 08:12 | 18.93766 | 112.80033 | 34886 ft | 513 kts | 60° |
| 2026-05-06 08:13 | 18.97067 | 112.86719 | 34885 ft | 513 kts | 61° |
| 2026-05-06 08:13 | 19.00363 | 112.93402 | 34879 ft | 513 kts | 61° |
| 2026-05-06 08:14 | 19.03659 | 113.00092 | 34883 ft | 513 kts | 61° |
| 2026-05-06 08:14 | 19.06933 | 113.06745 | 34884 ft | 513 kts | 61° |
| 2026-05-06 08:15 | 19.10225 | 113.13444 | 34883 ft | 513 kts | 61° |
| 2026-05-06 08:15 | 19.13516 | 113.20147 | 34886 ft | 514 kts | 61° |
| 2026-05-06 08:16 | 19.16808 | 113.26859 | 34886 ft | 514 kts | 61° |
| 2026-05-06 08:16 | 19.20096 | 113.33572 | 34886 ft | 514 kts | 61° |
| 2026-05-06 08:17 | 19.23381 | 113.40285 | 34888 ft | 514 kts | 61° |
| 2026-05-06 08:17 | 19.26671 | 113.47017 | 34890 ft | 514 kts | 61° |
| 2026-05-06 08:18 | 19.29955 | 113.53746 | 34888 ft | 515 kts | 61° |
| 2026-05-06 08:18 | 19.33240 | 113.60482 | 34889 ft | 515 kts | 61° |
| 2026-05-06 08:19 | 19.36522 | 113.67221 | 34888 ft | 515 kts | 61° |
| 2026-05-06 08:19 | 19.39784 | 113.73927 | 34888 ft | 515 kts | 61° |
| 2026-05-06 08:20 | 19.43067 | 113.80683 | 34891 ft | 515 kts | 61° |
| 2026-05-06 08:20 | 19.46344 | 113.87436 | 34892 ft | 515 kts | 61° |
| 2026-05-06 08:21 | 19.49625 | 113.94203 | 34891 ft | 515 kts | 61° |
| 2026-05-06 08:21 | 19.52876 | 114.00918 | 34890 ft | 515 kts | 61° |
| 2026-05-06 08:22 | 19.56146 | 114.07679 | 34892 ft | 515 kts | 61° |
| 2026-05-06 08:22 | 19.59418 | 114.14452 | 34893 ft | 515 kts | 61° |
| 2026-05-06 08:23 | 19.62685 | 114.21225 | 34893 ft | 515 kts | 61° |
| 2026-05-06 08:23 | 19.65947 | 114.27995 | 34890 ft | 515 kts | 61° |
| 2026-05-06 08:24 | 19.69210 | 114.34773 | 34897 ft | 515 kts | 61° |
| 2026-05-06 08:24 | 19.72453 | 114.41519 | 34892 ft | 515 kts | 61° |
| 2026-05-06 08:25 | 19.75711 | 114.48300 | 34892 ft | 516 kts | 61° |
| 2026-05-06 08:25 | 19.78965 | 114.55084 | 34895 ft | 516 kts | 61° |
| 2026-05-06 08:26 | 19.82217 | 114.61872 | 34895 ft | 516 kts | 61° |
| 2026-05-06 08:26 | 19.85467 | 114.68664 | 34895 ft | 516 kts | 61° |
| 2026-05-06 08:27 | 19.88718 | 114.75467 | 34897 ft | 516 kts | 61° |
| 2026-05-06 08:27 | 19.91961 | 114.82260 | 34893 ft | 516 kts | 61° |
| 2026-05-06 08:28 | 19.95184 | 114.89022 | 34896 ft | 516 kts | 61° |
| 2026-05-06 08:28 | 19.98427 | 114.95832 | 34897 ft | 516 kts | 61° |
| 2026-05-06 08:29 | 20.01671 | 115.02653 | 34896 ft | 516 kts | 61° |
| 2026-05-06 08:29 | 20.04913 | 115.09479 | 34893 ft | 517 kts | 61° |
| 2026-05-06 08:30 | 20.08151 | 115.16304 | 34898 ft | 517 kts | 61° |
| 2026-05-06 08:30 | 20.11388 | 115.23136 | 34885 ft | 517 kts | 61° |
| 2026-05-06 08:31 | 20.14601 | 115.29925 | 34900 ft | 517 kts | 61° |
| 2026-05-06 08:31 | 20.17836 | 115.36770 | 34905 ft | 517 kts | 61° |
| 2026-05-06 08:32 | 20.21069 | 115.43620 | 34890 ft | 518 kts | 61° |
| 2026-05-06 08:32 | 20.24297 | 115.50466 | 34889 ft | 518 kts | 61° |
| 2026-05-06 08:33 | 20.27532 | 115.57329 | 34891 ft | 518 kts | 61° |
| 2026-05-06 08:33 | 20.30763 | 115.64188 | 34908 ft | 518 kts | 61° |
| 2026-05-06 08:34 | 20.35587 | 115.74448 | 34902 ft | 518 kts | 61° |
| 2026-05-06 08:35 | 20.38809 | 115.81314 | 34916 ft | 518 kts | 61° |
| 2026-05-06 08:35 | 20.42030 | 115.88185 | 34900 ft | 518 kts | 61° |
| 2026-05-06 08:36 | 20.45249 | 115.95062 | 34901 ft | 518 kts | 61° |
| 2026-05-06 08:36 | 20.48468 | 116.01946 | 34908 ft | 518 kts | 61° |
| 2026-05-06 08:37 | 20.51682 | 116.08830 | 34909 ft | 518 kts | 61° |
| 2026-05-06 08:37 | 20.54895 | 116.15719 | 34909 ft | 518 kts | 61° |
| 2026-05-06 08:38 | 20.58104 | 116.22607 | 34907 ft | 519 kts | 61° |
| 2026-05-06 08:38 | 20.61313 | 116.29507 | 34908 ft | 519 kts | 61° |
| 2026-05-06 08:39 | 20.64503 | 116.36372 | 34910 ft | 519 kts | 61° |
| 2026-05-06 08:39 | 20.67708 | 116.43280 | 34910 ft | 519 kts | 61° |
| 2026-05-06 08:40 | 20.70906 | 116.50181 | 34909 ft | 519 kts | 61° |
| 2026-05-06 08:40 | 20.74108 | 116.57100 | 34912 ft | 519 kts | 61° |
| 2026-05-06 08:41 | 20.77303 | 116.64011 | 34906 ft | 518 kts | 61° |
| 2026-05-06 08:41 | 20.80477 | 116.70887 | 34909 ft | 518 kts | 61° |
| 2026-05-06 08:42 | 20.83664 | 116.77800 | 34908 ft | 518 kts | 62° |
| 2026-05-06 08:42 | 20.86848 | 116.84716 | 34911 ft | 518 kts | 62° |
| 2026-05-06 08:43 | 20.90031 | 116.91637 | 34910 ft | 518 kts | 62° |
| 2026-05-06 08:43 | 20.93204 | 116.98547 | 34911 ft | 517 kts | 62° |
| 2026-05-06 08:44 | 20.96356 | 117.05419 | 34913 ft | 517 kts | 62° |
| 2026-05-06 08:44 | 20.99522 | 117.12332 | 34913 ft | 517 kts | 62° |
| 2026-05-06 08:45 | 21.02686 | 117.19248 | 34915 ft | 517 kts | 62° |
| 2026-05-06 08:45 | 21.05846 | 117.26166 | 34918 ft | 517 kts | 62° |
| 2026-05-06 08:46 | 21.09005 | 117.33090 | 34916 ft | 517 kts | 62° |
| 2026-05-06 08:46 | 21.12158 | 117.40012 | 34915 ft | 517 kts | 62° |
| 2026-05-06 08:47 | 21.15285 | 117.46889 | 34913 ft | 517 kts | 63° |
| 2026-05-06 08:47 | 21.17809 | 117.54119 | 34915 ft | 520 kts | 73° |
| 2026-05-06 08:48 | 21.19556 | 117.61634 | 34920 ft | 520 kts | 75° |
| 2026-05-06 08:48 | 21.21276 | 117.69157 | 34915 ft | 520 kts | 75° |
| 2026-05-06 08:49 | 21.23036 | 117.76671 | 34916 ft | 520 kts | 74° |
| 2026-05-06 08:49 | 21.24819 | 117.84193 | 34918 ft | 520 kts | 74° |
| 2026-05-06 08:50 | 21.26587 | 117.91658 | 34918 ft | 520 kts | 74° |
| 2026-05-06 08:50 | 21.28361 | 117.99181 | 34917 ft | 520 kts | 74° |
| 2026-05-06 08:51 | 21.30130 | 118.06703 | 34921 ft | 520 kts | 74° |
| 2026-05-06 08:51 | 21.31596 | 118.12951 | 34921 ft | 520 kts | 74° |
| 2026-05-06 08:52 | 21.33360 | 118.20482 | 34919 ft | 520 kts | 74° |
| 2026-05-06 08:52 | 21.35416 | 118.29277 | 34919 ft | 520 kts | 74° |
| 2026-05-06 08:53 | 21.36875 | 118.35533 | 34915 ft | 520 kts | 74° |
| 2026-05-06 08:53 | 21.38630 | 118.43074 | 34919 ft | 520 kts | 74° |
| 2026-05-06 08:54 | 21.40378 | 118.50598 | 34919 ft | 520 kts | 74° |
| 2026-05-06 08:54 | 21.42113 | 118.58088 | 34918 ft | 520 kts | 74° |
| 2026-05-06 08:55 | 21.43856 | 118.65628 | 34918 ft | 520 kts | 74° |
| 2026-05-06 08:55 | 21.45594 | 118.73167 | 34920 ft | 520 kts | 74° |
| 2026-05-06 08:56 | 21.47330 | 118.80709 | 34915 ft | 520 kts | 74° |
| 2026-05-06 08:56 | 21.49065 | 118.88262 | 34914 ft | 520 kts | 74° |
| 2026-05-06 08:57 | 21.50797 | 118.95821 | 34916 ft | 521 kts | 74° |
| 2026-05-06 08:57 | 21.52513 | 119.03327 | 34918 ft | 521 kts | 74° |
| 2026-05-06 08:58 | 21.54237 | 119.10883 | 34920 ft | 521 kts | 74° |
| 2026-05-06 08:58 | 21.55957 | 119.18441 | 34919 ft | 521 kts | 74° |
| 2026-05-06 08:59 | 21.57675 | 119.26005 | 34919 ft | 521 kts | 74° |
| 2026-05-06 08:59 | 21.59389 | 119.33571 | 34917 ft | 521 kts | 74° |
| 2026-05-06 09:00 | 21.61103 | 119.41149 | 34919 ft | 521 kts | 74° |
| 2026-05-06 09:00 | 21.62810 | 119.48718 | 34918 ft | 521 kts | 74° |
| 2026-05-06 09:01 | 21.64514 | 119.56286 | 34914 ft | 521 kts | 73° |
| 2026-05-06 09:01 | 21.66216 | 119.63864 | 34918 ft | 521 kts | 73° |
| 2026-05-06 09:02 | 21.67902 | 119.71388 | 34915 ft | 521 kts | 73° |
| 2026-05-06 09:02 | 21.69594 | 119.78957 | 34915 ft | 521 kts | 73° |
| 2026-05-06 09:03 | 21.71282 | 119.86525 | 34915 ft | 520 kts | 73° |
| 2026-05-06 09:03 | 21.72969 | 119.94103 | 34918 ft | 520 kts | 73° |
| 2026-05-06 09:04 | 21.74652 | 120.01682 | 34923 ft | 520 kts | 73° |
| 2026-05-06 09:04 | 21.76334 | 120.09261 | 34919 ft | 521 kts | 73° |
| 2026-05-06 09:05 | 21.78013 | 120.16838 | 34918 ft | 521 kts | 73° |
| 2026-05-06 09:05 | 21.79688 | 120.24420 | 34917 ft | 521 kts | 73° |
| 2026-05-06 09:06 | 21.81349 | 120.31957 | 34921 ft | 521 kts | 73° |
| 2026-05-06 09:06 | 21.83021 | 120.39561 | 34918 ft | 521 kts | 73° |
| 2026-05-06 09:07 | 21.84686 | 120.47150 | 34922 ft | 521 kts | 73° |
| 2026-05-06 09:07 | 21.86350 | 120.54755 | 34927 ft | 522 kts | 73° |
| 2026-05-06 09:08 | 21.88011 | 120.62364 | 34921 ft | 522 kts | 73° |
| 2026-05-06 09:08 | 21.89670 | 120.69976 | 34923 ft | 522 kts | 74° |
| 2026-05-06 09:09 | 21.91326 | 120.77600 | 34926 ft | 523 kts | 74° |
| 2026-05-06 09:09 | 21.92979 | 120.85232 | 34930 ft | 524 kts | 75° |
| 2026-05-06 09:10 | 21.94393 | 120.92892 | 34922 ft | 525 kts | 77° |
| 2026-05-06 09:10 | 21.95704 | 121.00638 | 34923 ft | 525 kts | 77° |
| 2026-05-06 09:11 | 21.97068 | 121.08376 | 34934 ft | 526 kts | 77° |
| 2026-05-06 09:11 | 21.98759 | 121.16021 | 34932 ft | 522 kts | 66° |
| 2026-05-06 09:12 | 22.02003 | 121.22934 | 34936 ft | 515 kts | 52° |
| 2026-05-06 09:12 | 22.06438 | 121.28932 | 34933 ft | 511 kts | 46° |
| 2026-05-06 09:13 | 22.10992 | 121.34834 | 34928 ft | 513 kts | 47° |
| 2026-05-06 09:13 | 22.15483 | 121.40829 | 34929 ft | 514 kts | 47° |
| 2026-05-06 09:14 | 22.19937 | 121.46813 | 34926 ft | 514 kts | 47° |
| 2026-05-06 09:14 | 22.24424 | 121.52841 | 34927 ft | 515 kts | 47° |
| 2026-05-06 09:15 | 22.28908 | 121.58870 | 34922 ft | 515 kts | 47° |
| 2026-05-06 09:15 | 22.33393 | 121.64910 | 34920 ft | 515 kts | 47° |
| 2026-05-06 09:16 | 22.37876 | 121.70952 | 34929 ft | 515 kts | 47° |
| 2026-05-06 09:16 | 22.42355 | 121.76997 | 34931 ft | 515 kts | 47° |
| 2026-05-06 09:17 | 22.46831 | 121.83050 | 34932 ft | 514 kts | 47° |
| 2026-05-06 09:17 | 22.51295 | 121.89093 | 34940 ft | 514 kts | 47° |
| 2026-05-06 09:18 | 22.55725 | 121.95097 | 34939 ft | 513 kts | 47° |
| 2026-05-06 09:18 | 22.60176 | 122.01137 | 34940 ft | 513 kts | 47° |
| 2026-05-06 09:19 | 22.64625 | 122.07180 | 34940 ft | 513 kts | 47° |
| 2026-05-06 09:19 | 22.69071 | 122.13226 | 34943 ft | 513 kts | 47° |
| 2026-05-06 09:20 | 22.73514 | 122.19276 | 34945 ft | 513 kts | 47° |
| 2026-05-06 09:20 | 22.77949 | 122.25321 | 34946 ft | 513 kts | 47° |
| 2026-05-06 09:21 | 22.82355 | 122.31335 | 34946 ft | 513 kts | 47° |
| 2026-05-06 09:21 | 22.86785 | 122.37387 | 34945 ft | 513 kts | 47° |
| 2026-05-06 09:22 | 22.91219 | 122.43454 | 34949 ft | 512 kts | 47° |
| 2026-05-06 09:22 | 22.95649 | 122.49521 | 34947 ft | 512 kts | 47° |
| 2026-05-06 09:23 | 23.00071 | 122.55584 | 34948 ft | 512 kts | 47° |
| 2026-05-06 09:23 | 23.04489 | 122.61649 | 34949 ft | 512 kts | 47° |
| 2026-05-06 09:24 | 23.08905 | 122.67720 | 34948 ft | 511 kts | 47° |
| 2026-05-06 09:24 | 23.13287 | 122.73750 | 34949 ft | 511 kts | 47° |
| 2026-05-06 09:25 | 23.17693 | 122.79820 | 34947 ft | 511 kts | 47° |
| 2026-05-06 09:25 | 23.22091 | 122.85887 | 34950 ft | 510 kts | 47° |
| 2026-05-06 09:26 | 23.26480 | 122.91949 | 34948 ft | 510 kts | 47° |
| 2026-05-06 09:26 | 23.30842 | 122.97980 | 34952 ft | 510 kts | 47° |
| 2026-05-06 09:27 | 23.35055 | 123.04196 | 34948 ft | 511 kts | 51° |
| 2026-05-06 09:27 | 23.39073 | 123.10601 | 34954 ft | 512 kts | 51° |
| 2026-05-06 09:28 | 23.43079 | 123.17025 | 34949 ft | 512 kts | 51° |
| 2026-05-06 09:28 | 23.47095 | 123.23420 | 34951 ft | 512 kts | 51° |
| 2026-05-06 09:29 | 23.51123 | 123.29812 | 34951 ft | 512 kts | 51° |
| 2026-05-06 09:29 | 23.55155 | 123.36216 | 34952 ft | 512 kts | 51° |
| 2026-05-06 09:30 | 23.59180 | 123.42619 | 34951 ft | 511 kts | 51° |
| 2026-05-06 09:30 | 23.63174 | 123.48985 | 34951 ft | 511 kts | 51° |
| 2026-05-06 09:31 | 23.67187 | 123.55389 | 34952 ft | 511 kts | 51° |
| 2026-05-06 09:31 | 23.71197 | 123.61796 | 34953 ft | 511 kts | 51° |
| 2026-05-06 09:32 | 23.75203 | 123.68204 | 34955 ft | 511 kts | 51° |
| 2026-05-06 09:32 | 23.79209 | 123.74621 | 34952 ft | 511 kts | 51° |
| 2026-05-06 09:33 | 23.83185 | 123.80998 | 34953 ft | 511 kts | 51° |
| 2026-05-06 09:33 | 23.87185 | 123.87421 | 34952 ft | 511 kts | 51° |
| 2026-05-06 09:34 | 23.91177 | 123.93842 | 34955 ft | 511 kts | 51° |
| 2026-05-06 09:34 | 23.95170 | 124.00270 | 34958 ft | 511 kts | 50° |
| 2026-05-06 09:35 | 23.99238 | 124.06630 | 34954 ft | 510 kts | 49° |
| 2026-05-06 09:35 | 24.03331 | 124.12904 | 34958 ft | 510 kts | 49° |
| 2026-05-06 09:36 | 24.07439 | 124.19225 | 34957 ft | 510 kts | 49° |
| 2026-05-06 09:36 | 24.11536 | 124.25568 | 34955 ft | 510 kts | 50° |
| 2026-05-06 09:37 | 24.15627 | 124.31921 | 34955 ft | 510 kts | 50° |
| 2026-05-06 09:37 | 24.19714 | 124.38275 | 34951 ft | 510 kts | 50° |
| 2026-05-06 09:38 | 24.23799 | 124.44634 | 34953 ft | 510 kts | 50° |
| 2026-05-06 09:38 | 24.27883 | 124.50997 | 34956 ft | 510 kts | 50° |
| 2026-05-06 09:39 | 24.31972 | 124.57376 | 34958 ft | 510 kts | 50° |
| 2026-05-06 09:39 | 24.36033 | 124.63720 | 34966 ft | 511 kts | 50° |
| 2026-05-06 09:40 | 24.40114 | 124.70103 | 34965 ft | 511 kts | 50° |
| 2026-05-06 09:40 | 24.46222 | 124.79674 | 34963 ft | 510 kts | 50° |
| 2026-05-06 09:41 | 24.49632 | 124.85025 | 34975 ft | 510 kts | 50° |
| 2026-05-06 09:41 | 24.53012 | 124.90335 | 34962 ft | 510 kts | 50° |
| 2026-05-06 09:42 | 24.57734 | 124.97762 | 34966 ft | 510 kts | 50° |
| 2026-05-06 09:42 | 24.61797 | 125.04162 | 34968 ft | 510 kts | 50° |
| 2026-05-06 09:43 | 24.65859 | 125.10569 | 34973 ft | 510 kts | 50° |
| 2026-05-06 09:43 | 24.69915 | 125.16977 | 34971 ft | 510 kts | 50° |
| 2026-05-06 09:44 | 24.73973 | 125.23396 | 34974 ft | 510 kts | 50° |
| 2026-05-06 09:44 | 24.78024 | 125.29811 | 34971 ft | 510 kts | 50° |
| 2026-05-06 09:45 | 24.81855 | 125.36352 | 34971 ft | 512 kts | 53° |
| 2026-05-06 09:45 | 24.85569 | 125.43043 | 34968 ft | 512 kts | 53° |
| 2026-05-06 09:46 | 24.89296 | 125.49722 | 34972 ft | 511 kts | 53° |
| 2026-05-06 09:46 | 24.93046 | 125.56371 | 34980 ft | 510 kts | 52° |
| 2026-05-06 09:47 | 24.96802 | 125.63011 | 34981 ft | 510 kts | 52° |
| 2026-05-06 09:47 | 25.00521 | 125.69594 | 34983 ft | 509 kts | 53° |
| 2026-05-06 09:48 | 25.04257 | 125.76221 | 34980 ft | 509 kts | 53° |
| 2026-05-06 09:48 | 25.07993 | 125.82862 | 34977 ft | 508 kts | 53° |
| 2026-05-06 09:49 | 25.11721 | 125.89496 | 34985 ft | 509 kts | 53° |
| 2026-05-06 09:49 | 25.15449 | 125.96140 | 34989 ft | 509 kts | 53° |
| 2026-05-06 09:50 | 25.19179 | 126.02796 | 34992 ft | 510 kts | 53° |
| 2026-05-06 09:50 | 25.22912 | 126.09467 | 34996 ft | 511 kts | 53° |
| 2026-05-06 09:51 | 25.26633 | 126.16127 | 35000 ft | 513 kts | 53° |
| 2026-05-06 09:51 | 25.30384 | 126.22849 | 35003 ft | 514 kts | 54° |
| 2026-05-06 09:52 | 25.34138 | 126.29588 | 35000 ft | 516 kts | 54° |
| 2026-05-06 09:52 | 25.37904 | 126.36359 | 34997 ft | 517 kts | 54° |
| 2026-05-06 09:53 | 25.41668 | 126.43136 | 34999 ft | 517 kts | 54° |
| 2026-05-06 09:53 | 25.45436 | 126.49929 | 35002 ft | 518 kts | 54° |
| 2026-05-06 09:54 | 25.49207 | 126.56742 | 35004 ft | 519 kts | 55° |
| 2026-05-06 09:54 | 25.52965 | 126.63588 | 35000 ft | 520 kts | 56° |
| 2026-05-06 09:55 | 25.56722 | 126.70452 | 35004 ft | 522 kts | 56° |
| 2026-05-06 09:55 | 25.60486 | 126.77333 | 35007 ft | 523 kts | 56° |
| 2026-05-06 09:56 | 25.64258 | 126.84236 | 35003 ft | 524 kts | 57° |
| 2026-05-06 09:56 | 25.68017 | 126.91127 | 35004 ft | 525 kts | 57° |
| 2026-05-06 09:57 | 25.71797 | 126.98062 | 35002 ft | 527 kts | 57° |
| 2026-05-06 09:57 | 25.75586 | 127.05029 | 35005 ft | 528 kts | 58° |
| 2026-05-06 09:58 | 25.79382 | 127.12021 | 35005 ft | 529 kts | 58° |
| 2026-05-06 09:58 | 25.83189 | 127.19045 | 35004 ft | 531 kts | 58° |
| 2026-05-06 09:59 | 25.86976 | 127.26041 | 35000 ft | 532 kts | 58° |
| 2026-05-06 09:59 | 25.90790 | 127.33097 | 35001 ft | 533 kts | 59° |
| 2026-05-06 10:00 | 25.94616 | 127.40168 | 35001 ft | 533 kts | 59° |
| 2026-05-06 10:00 | 25.98443 | 127.47250 | 34989 ft | 534 kts | 59° |
| 2026-05-06 10:01 | 26.02241 | 127.54294 | 34980 ft | 534 kts | 60° |
| 2026-05-06 10:01 | 26.06055 | 127.61381 | 34972 ft | 534 kts | 60° |
| 2026-05-06 10:02 | 26.09870 | 127.68480 | 34972 ft | 534 kts | 60° |
| 2026-05-06 10:02 | 26.13718 | 127.75559 | 34962 ft | 534 kts | 57° |
| 2026-05-06 10:03 | 26.18382 | 127.82009 | 35013 ft | 535 kts | 47° |
| 2026-05-06 10:03 | 26.23891 | 127.87567 | 35012 ft | 535 kts | 40° |
| 2026-05-06 10:04 | 26.29640 | 127.92827 | 35001 ft | 535 kts | 39° |
| 2026-05-06 10:04 | 26.35380 | 127.98104 | 35000 ft | 535 kts | 40° |
| 2026-05-06 10:05 | 26.41082 | 128.03421 | 35005 ft | 534 kts | 40° |
| 2026-05-06 10:05 | 26.46735 | 128.08727 | 35010 ft | 534 kts | 40° |
| 2026-05-06 10:06 | 26.52420 | 128.14071 | 35016 ft | 534 kts | 40° |
| 2026-05-06 10:06 | 26.58095 | 128.19407 | 35015 ft | 533 kts | 40° |
| 2026-05-06 10:07 | 26.63768 | 128.24746 | 35019 ft | 533 kts | 40° |
| 2026-05-06 10:07 | 26.69442 | 128.30094 | 35016 ft | 533 kts | 40° |
| 2026-05-06 10:08 | 26.75104 | 128.35436 | 35014 ft | 533 kts | 40° |
| 2026-05-06 10:08 | 26.80776 | 128.40797 | 35009 ft | 533 kts | 40° |
| 2026-05-06 10:09 | 26.86405 | 128.46124 | 35007 ft | 533 kts | 40° |
| 2026-05-06 10:09 | 26.92067 | 128.51489 | 34998 ft | 534 kts | 40° |
| 2026-05-06 10:10 | 26.97741 | 128.56873 | 35005 ft | 534 kts | 40° |
| 2026-05-06 10:10 | 27.03418 | 128.62267 | 35003 ft | 535 kts | 40° |
| 2026-05-06 10:11 | 27.09098 | 128.67671 | 35011 ft | 535 kts | 40° |
| 2026-05-06 10:11 | 27.14786 | 128.73091 | 35025 ft | 536 kts | 41° |
| 2026-05-06 10:12 | 27.20468 | 128.78513 | 35024 ft | 536 kts | 41° |
| 2026-05-06 10:12 | 27.26166 | 128.83957 | 35024 ft | 537 kts | 40° |
| 2026-05-06 10:13 | 27.31858 | 128.89403 | 35026 ft | 537 kts | 41° |
| 2026-05-06 10:13 | 27.37517 | 128.94826 | 35027 ft | 538 kts | 41° |
| 2026-05-06 10:14 | 27.43219 | 129.00297 | 35029 ft | 538 kts | 41° |
| 2026-05-06 10:14 | 27.48920 | 129.05776 | 35031 ft | 539 kts | 41° |
| 2026-05-06 10:15 | 27.54440 | 129.11484 | 35030 ft | 539 kts | 49° |
| 2026-05-06 10:15 | 27.59257 | 129.17950 | 35037 ft | 538 kts | 52° |
| 2026-05-06 10:16 | 27.63981 | 129.24514 | 35034 ft | 539 kts | 52° |
| 2026-05-06 10:16 | 27.68740 | 129.31072 | 35032 ft | 540 kts | 51° |
| 2026-05-06 10:17 | 27.73533 | 129.37622 | 35035 ft | 541 kts | 51° |
| 2026-05-06 10:17 | 27.78305 | 129.44132 | 35027 ft | 541 kts | 51° |
| 2026-05-06 10:18 | 27.83108 | 129.50700 | 35032 ft | 542 kts | 51° |
| 2026-05-06 10:18 | 27.87901 | 129.57268 | 35033 ft | 542 kts | 51° |
| 2026-05-06 10:19 | 27.92696 | 129.63851 | 35035 ft | 542 kts | 51° |
| 2026-05-06 10:19 | 27.97485 | 129.70437 | 35035 ft | 542 kts | 51° |
| 2026-05-06 10:20 | 28.02279 | 129.77039 | 35034 ft | 543 kts | 51° |
| 2026-05-06 10:20 | 28.07071 | 129.83648 | 35030 ft | 543 kts | 51° |
| 2026-05-06 10:21 | 28.11872 | 129.90281 | 35026 ft | 544 kts | 51° |
| 2026-05-06 10:21 | 28.16642 | 129.96879 | 35026 ft | 545 kts | 51° |
| 2026-05-06 10:22 | 28.21457 | 130.03551 | 35025 ft | 546 kts | 51° |
| 2026-05-06 10:22 | 28.26270 | 130.10231 | 35026 ft | 547 kts | 51° |
| 2026-05-06 10:23 | 28.31096 | 130.16940 | 35031 ft | 549 kts | 51° |
| 2026-05-06 10:23 | 28.35924 | 130.23661 | 35031 ft | 550 kts | 51° |
| 2026-05-06 10:24 | 28.40760 | 130.30405 | 35034 ft | 550 kts | 51° |
| 2026-05-06 10:24 | 28.45566 | 130.37117 | 35037 ft | 551 kts | 51° |
| 2026-05-06 10:25 | 28.50409 | 130.43893 | 35031 ft | 552 kts | 51° |
| 2026-05-06 10:25 | 28.55250 | 130.50676 | 35035 ft | 552 kts | 51° |
| 2026-05-06 10:26 | 28.60090 | 130.57468 | 35031 ft | 552 kts | 51° |
| 2026-05-06 10:26 | 28.64934 | 130.64278 | 35032 ft | 553 kts | 51° |
| 2026-05-06 10:27 | 28.69770 | 130.71088 | 35031 ft | 553 kts | 51° |
| 2026-05-06 10:27 | 28.73791 | 130.76758 | 35029 ft | 553 kts | 51° |
| 2026-05-06 10:28 | 28.78636 | 130.83601 | 35031 ft | 554 kts | 51° |
| 2026-05-06 10:28 | 28.83471 | 130.90440 | 35031 ft | 554 kts | 51° |
| 2026-05-06 10:29 | 28.88253 | 130.97210 | 35021 ft | 547 kts | 53° |
| 2026-05-06 10:29 | 28.93008 | 131.03960 | 35030 ft | 545 kts | 53° |
| 2026-05-06 10:30 | 28.97758 | 131.10716 | 35030 ft | 545 kts | 53° |
| 2026-05-06 10:30 | 29.02508 | 131.17481 | 35027 ft | 546 kts | 53° |
| 2026-05-06 10:31 | 29.07261 | 131.24260 | 35028 ft | 547 kts | 53° |
| 2026-05-06 10:31 | 29.12017 | 131.31054 | 35030 ft | 548 kts | 53° |
| 2026-05-06 10:32 | 29.16780 | 131.37869 | 35030 ft | 548 kts | 53° |
| 2026-05-06 10:32 | 29.21544 | 131.44696 | 35033 ft | 548 kts | 53° |
| 2026-05-06 10:33 | 29.26312 | 131.51542 | 35030 ft | 549 kts | 53° |
| 2026-05-06 10:33 | 29.31039 | 131.58339 | 35035 ft | 549 kts | 53° |
| 2026-05-06 10:34 | 29.35795 | 131.65189 | 35036 ft | 548 kts | 53° |
| 2026-05-06 10:34 | 29.40540 | 131.72036 | 35034 ft | 548 kts | 53° |
| 2026-05-06 10:35 | 29.45281 | 131.78888 | 35037 ft | 548 kts | 53° |
| 2026-05-06 10:35 | 29.50018 | 131.85746 | 35042 ft | 547 kts | 53° |
| 2026-05-06 10:36 | 29.54749 | 131.92608 | 35040 ft | 547 kts | 53° |
| 2026-05-06 10:36 | 29.59470 | 131.99466 | 35041 ft | 547 kts | 53° |
| 2026-05-06 10:37 | 29.64192 | 132.06336 | 35043 ft | 547 kts | 53° |
| 2026-05-06 10:37 | 29.68954 | 132.13167 | 35042 ft | 548 kts | 52° |
| 2026-05-06 10:38 | 29.73778 | 132.19887 | 35047 ft | 548 kts | 52° |
| 2026-05-06 10:38 | 29.78638 | 132.26654 | 35041 ft | 548 kts | 52° |
| 2026-05-06 10:39 | 29.83479 | 132.33444 | 35048 ft | 548 kts | 52° |
| 2026-05-06 10:39 | 29.88308 | 132.40248 | 35045 ft | 549 kts | 52° |
| 2026-05-06 10:40 | 29.93141 | 132.47071 | 35046 ft | 549 kts | 52° |
| 2026-05-06 10:40 | 29.97944 | 132.53859 | 35048 ft | 549 kts | 52° |
| 2026-05-06 10:41 | 30.02770 | 132.60691 | 35046 ft | 549 kts | 52° |
| 2026-05-06 10:41 | 30.07595 | 132.67533 | 35049 ft | 549 kts | 52° |
| 2026-05-06 10:42 | 30.12420 | 132.74386 | 35054 ft | 550 kts | 52° |
| 2026-05-06 10:42 | 30.17240 | 132.81245 | 35053 ft | 550 kts | 52° |
| 2026-05-06 10:43 | 30.22054 | 132.88106 | 35053 ft | 550 kts | 52° |
| 2026-05-06 10:44 | 30.29272 | 132.98416 | 35052 ft | 550 kts | 52° |
| 2026-05-06 10:44 | 30.34086 | 133.05308 | 35057 ft | 550 kts | 53° |
| 2026-05-06 10:45 | 30.38891 | 133.12198 | 35060 ft | 550 kts | 53° |
| 2026-05-06 10:45 | 30.43662 | 133.19052 | 35060 ft | 550 kts | 53° |
| 2026-05-06 10:46 | 30.48475 | 133.25977 | 35060 ft | 551 kts | 53° |
| 2026-05-06 10:46 | 30.53275 | 133.32896 | 35060 ft | 551 kts | 53° |
| 2026-05-06 10:47 | 30.58080 | 133.39835 | 35059 ft | 551 kts | 53° |
| 2026-05-06 10:47 | 30.62887 | 133.46789 | 35063 ft | 552 kts | 53° |
| 2026-05-06 10:48 | 30.67690 | 133.53750 | 35057 ft | 552 kts | 53° |
| 2026-05-06 10:48 | 30.72497 | 133.60730 | 35059 ft | 552 kts | 53° |
| 2026-05-06 10:49 | 30.77270 | 133.67672 | 35057 ft | 552 kts | 53° |
| 2026-05-06 10:49 | 30.82064 | 133.74656 | 35057 ft | 552 kts | 53° |
| 2026-05-06 10:50 | 30.86862 | 133.81654 | 35059 ft | 553 kts | 53° |
| 2026-05-06 10:50 | 30.91651 | 133.88654 | 35055 ft | 553 kts | 53° |
| 2026-05-06 10:51 | 30.96440 | 133.95667 | 35058 ft | 553 kts | 53° |
| 2026-05-06 10:51 | 31.01224 | 134.02687 | 35058 ft | 553 kts | 53° |
| 2026-05-06 10:52 | 31.06005 | 134.09715 | 35061 ft | 553 kts | 53° |
| 2026-05-06 10:52 | 31.10778 | 134.16743 | 35061 ft | 553 kts | 53° |
| 2026-05-06 10:53 | 31.15544 | 134.23775 | 35064 ft | 552 kts | 53° |
| 2026-05-06 10:53 | 31.20310 | 134.30817 | 35063 ft | 552 kts | 53° |
| 2026-05-06 10:54 | 31.25071 | 134.37867 | 35064 ft | 552 kts | 53° |
| 2026-05-06 10:54 | 31.29793 | 134.44871 | 35069 ft | 552 kts | 53° |
| 2026-05-06 10:55 | 31.34545 | 134.51931 | 35066 ft | 552 kts | 53° |
| 2026-05-06 10:55 | 31.39292 | 134.58999 | 35068 ft | 552 kts | 53° |
| 2026-05-06 10:56 | 31.44038 | 134.66077 | 35070 ft | 552 kts | 53° |
| 2026-05-06 10:56 | 31.48772 | 134.73151 | 35075 ft | 552 kts | 53° |
| 2026-05-06 10:57 | 31.53512 | 134.80246 | 35071 ft | 552 kts | 53° |
| 2026-05-06 10:57 | 31.58221 | 134.87308 | 35076 ft | 553 kts | 53° |
| 2026-05-06 10:58 | 31.62953 | 134.94419 | 35075 ft | 553 kts | 53° |
| 2026-05-06 10:58 | 31.67686 | 135.01549 | 35201 ft | 557 kts | 50° |
| 2026-05-06 10:59 | 31.72573 | 135.08809 | 35126 ft | 575 kts | 46° |
| 2026-05-06 10:59 | 31.72787 | 135.09104 | 35121 ft | 575 kts | 46° |
| 2026-05-06 11:01 | 31.74768 | 135.11766 | 35081 ft | 580 kts | 45° |
| 2026-05-06 11:01 | 31.80166 | 135.18752 | 35079 ft | 580 kts | 44° |
| 2026-05-06 11:02 | 31.85608 | 135.25746 | 35082 ft | 578 kts | 44° |
| 2026-05-06 11:02 | 31.91056 | 135.32833 | 35100 ft | 591 kts | 44° |
| 2026-05-06 11:03 | 31.96615 | 135.40121 | 35103 ft | 604 kts | 44° |
| 2026-05-06 11:03 | 32.02222 | 135.47503 | 35096 ft | 605 kts | 44° |
| 2026-05-06 11:04 | 32.07827 | 135.54893 | 35086 ft | 602 kts | 45° |
| 2026-05-06 11:04 | 32.13359 | 135.62190 | 35082 ft | 598 kts | 45° |
| 2026-05-06 11:05 | 32.18891 | 135.69500 | 35086 ft | 595 kts | 45° |
| 2026-05-06 11:05 | 32.24399 | 135.76791 | 35093 ft | 593 kts | 45° |
| 2026-05-06 11:06 | 32.29880 | 135.84063 | 35093 ft | 592 kts | 45° |
| 2026-05-06 11:06 | 32.35357 | 135.91344 | 35099 ft | 593 kts | 45° |
| 2026-05-06 11:07 | 32.40847 | 135.98658 | 35102 ft | 593 kts | 45° |
| 2026-05-06 11:07 | 32.46333 | 136.05967 | 35105 ft | 594 kts | 45° |
| 2026-05-06 11:08 | 32.51800 | 136.13231 | 35102 ft | 595 kts | 45° |
| 2026-05-06 11:08 | 32.57303 | 136.20556 | 35102 ft | 595 kts | 45° |
| 2026-05-06 11:09 | 32.62804 | 136.27901 | 35108 ft | 595 kts | 45° |
| 2026-05-06 11:09 | 32.68298 | 136.35255 | 35107 ft | 595 kts | 45° |
| 2026-05-06 11:10 | 32.73792 | 136.42622 | 35113 ft | 595 kts | 45° |
| 2026-05-06 11:10 | 32.79281 | 136.49998 | 35112 ft | 596 kts | 45° |
| 2026-05-06 11:11 | 32.84765 | 136.57383 | 35110 ft | 596 kts | 45° |
| 2026-05-06 11:11 | 32.90249 | 136.64782 | 35116 ft | 596 kts | 45° |
| 2026-05-06 11:12 | 32.95725 | 136.72195 | 35116 ft | 596 kts | 46° |
| 2026-05-06 11:12 | 33.01195 | 136.79630 | 35117 ft | 597 kts | 46° |
| 2026-05-06 11:13 | 33.06629 | 136.87034 | 35118 ft | 597 kts | 46° |
| 2026-05-06 11:13 | 33.12098 | 136.94497 | 35122 ft | 597 kts | 46° |
| 2026-05-06 11:14 | 33.17558 | 137.01964 | 35115 ft | 597 kts | 46° |
| 2026-05-06 11:14 | 33.23023 | 137.09453 | 35118 ft | 598 kts | 46° |
| 2026-05-06 11:15 | 33.27567 | 137.15684 | 35118 ft | 598 kts | 46° |
| 2026-05-06 11:15 | 33.33033 | 137.23189 | 35121 ft | 598 kts | 46° |
| 2026-05-06 11:16 | 33.38491 | 137.30701 | 35119 ft | 598 kts | 46° |
| 2026-05-06 11:16 | 33.43942 | 137.38221 | 35124 ft | 598 kts | 46° |
| 2026-05-06 11:17 | 33.49391 | 137.45754 | 35126 ft | 598 kts | 46° |
| 2026-05-06 11:17 | 33.54832 | 137.53293 | 35128 ft | 598 kts | 46° |
| 2026-05-06 11:18 | 33.60188 | 137.60935 | 35125 ft | 600 kts | 51° |
| 2026-05-06 11:18 | 33.64683 | 137.69383 | 35125 ft | 602 kts | 61° |
| 2026-05-06 11:19 | 33.68629 | 137.78247 | 35130 ft | 602 kts | 62° |
| 2026-05-06 11:19 | 33.72566 | 137.87063 | 35129 ft | 602 kts | 61° |
| 2026-05-06 11:20 | 33.76587 | 137.95901 | 35130 ft | 602 kts | 60° |
| 2026-05-06 11:20 | 33.80613 | 138.04724 | 35130 ft | 602 kts | 60° |
| 2026-05-06 11:21 | 33.84634 | 138.13582 | 35132 ft | 602 kts | 60° |
| 2026-05-06 11:21 | 33.88611 | 138.22382 | 35128 ft | 603 kts | 60° |
| 2026-05-06 11:22 | 33.92610 | 138.31252 | 35212 ft | 600 kts | 61° |
| 2026-05-06 11:22 | 33.96590 | 138.40163 | 35147 ft | 608 kts | 61° |
| 2026-05-06 11:23 | 34.00587 | 138.49157 | 35150 ft | 608 kts | 61° |
| 2026-05-06 11:23 | 34.04579 | 138.58152 | 35142 ft | 608 kts | 61° |
| 2026-05-06 11:24 | 34.08525 | 138.67062 | 35141 ft | 606 kts | 61° |
| 2026-05-06 11:24 | 34.12490 | 138.76035 | 35142 ft | 604 kts | 61° |
| 2026-05-06 11:25 | 34.16423 | 138.84963 | 35131 ft | 595 kts | 61° |
| 2026-05-06 11:25 | 34.18340 | 138.89325 | 35034 ft | 581 kts | 61° |
| 2026-05-06 11:25 | 34.20221 | 138.93606 | 34664 ft | 573 kts | 61° |
| 2026-05-06 11:25 | 34.22082 | 138.97860 | 33983 ft | 573 kts | 62° |
| 2026-05-06 11:26 | 34.23932 | 139.02135 | 33119 ft | 575 kts | 62° |
| 2026-05-06 11:26 | 34.25780 | 139.06424 | 32238 ft | 576 kts | 62° |
| 2026-05-06 11:26 | 34.27501 | 139.10413 | 31418 ft | 574 kts | 63° |
| 2026-05-06 11:26 | 34.29244 | 139.14717 | 30884 ft | 565 kts | 67° |
| 2026-05-06 11:27 | 34.30789 | 139.19066 | 30194 ft | 560 kts | 68° |
| 2026-05-06 11:27 | 34.32255 | 139.23363 | 29355 ft | 558 kts | 69° |
| 2026-05-06 11:27 | 34.33712 | 139.27690 | 28671 ft | 552 kts | 69° |
| 2026-05-06 11:27 | 34.35152 | 139.31951 | 28044 ft | 539 kts | 69° |
| 2026-05-06 11:28 | 34.36564 | 139.36096 | 27126 ft | 528 kts | 68° |
| 2026-05-06 11:28 | 34.37966 | 139.40182 | 26077 ft | 522 kts | 68° |
| 2026-05-06 11:28 | 34.39356 | 139.44219 | 25043 ft | 517 kts | 68° |
| 2026-05-06 11:28 | 34.40733 | 139.48219 | 24054 ft | 511 kts | 68° |
| 2026-05-06 11:29 | 34.42088 | 139.52161 | 23024 ft | 504 kts | 68° |
| 2026-05-06 11:29 | 34.43421 | 139.56048 | 22062 ft | 495 kts | 69° |
| 2026-05-06 11:29 | 34.44726 | 139.59859 | 21181 ft | 485 kts | 69° |
| 2026-05-06 11:29 | 34.46005 | 139.63599 | 20299 ft | 476 kts | 69° |
| 2026-05-06 11:30 | 34.47303 | 139.67256 | 19402 ft | 470 kts | 64° |
| 2026-05-06 11:30 | 34.49062 | 139.70565 | 18696 ft | 468 kts | 50° |
| 2026-05-06 11:30 | 34.51297 | 139.73408 | 18308 ft | 463 kts | 40° |
| 2026-05-06 11:30 | 34.53874 | 139.75744 | 17695 ft | 461 kts | 28° |
| 2026-05-06 11:31 | 34.56591 | 139.77661 | 17147 ft | 455 kts | 26° |
| 2026-05-06 11:31 | 34.59315 | 139.79548 | 16748 ft | 447 kts | 27° |
| 2026-05-06 11:31 | 34.61974 | 139.81434 | 16354 ft | 438 kts | 27° |
| 2026-05-06 11:31 | 34.64571 | 139.83323 | 15935 ft | 432 kts | 27° |
| 2026-05-06 11:32 | 34.67137 | 139.85197 | 15478 ft | 426 kts | 26° |
| 2026-05-06 11:32 | 34.69796 | 139.86633 | 14963 ft | 412 kts | 12° |
| 2026-05-06 11:32 | 34.72518 | 139.87470 | 14877 ft | 395 kts | 8° |
| 2026-05-06 11:32 | 34.75144 | 139.88230 | 14783 ft | 381 kts | 8° |
| 2026-05-06 11:33 | 34.77668 | 139.88995 | 14692 ft | 368 kts | 9° |
| 2026-05-06 11:33 | 34.80109 | 139.89768 | 14628 ft | 356 kts | 9° |
| 2026-05-06 11:33 | 34.82462 | 139.90534 | 14548 ft | 344 kts | 9° |
| 2026-05-06 11:33 | 34.84730 | 139.91283 | 14482 ft | 332 kts | 9° |
| 2026-05-06 11:34 | 34.86921 | 139.92008 | 14401 ft | 321 kts | 9° |
| 2026-05-06 11:34 | 34.89020 | 139.92779 | 14253 ft | 313 kts | 19° |
| 2026-05-06 11:34 | 34.90838 | 139.94237 | 14049 ft | 314 kts | 38° |
| 2026-05-06 11:34 | 34.92432 | 139.95982 | 13779 ft | 311 kts | 38° |
| 2026-05-06 11:35 | 34.94049 | 139.97725 | 13429 ft | 310 kts | 37° |
| 2026-05-06 11:35 | 34.95674 | 139.99444 | 13102 ft | 309 kts | 37° |
| 2026-05-06 11:35 | 34.97302 | 140.01151 | 12778 ft | 307 kts | 37° |
| 2026-05-06 11:35 | 34.98784 | 140.02996 | 12374 ft | 307 kts | 57° |
| 2026-05-06 11:36 | 34.99560 | 140.05408 | 12195 ft | 311 kts | 79° |
| 2026-05-06 11:36 | 34.99931 | 140.08033 | 12193 ft | 316 kts | 82° |
| 2026-05-06 11:36 | 35.00273 | 140.10677 | 12153 ft | 313 kts | 82° |
| 2026-05-06 11:36 | 35.00606 | 140.13276 | 12145 ft | 308 kts | 82° |
| 2026-05-06 11:37 | 35.00937 | 140.15848 | 12149 ft | 306 kts | 82° |
| 2026-05-06 11:37 | 35.01273 | 140.18422 | 12157 ft | 308 kts | 82° |
| 2026-05-06 11:37 | 35.01614 | 140.21010 | 12168 ft | 309 kts | 82° |
| 2026-05-06 11:37 | 35.01959 | 140.23612 | 12166 ft | 311 kts | 82° |
| 2026-05-06 11:38 | 35.02306 | 140.26223 | 12164 ft | 312 kts | 82° |
| 2026-05-06 11:38 | 35.02655 | 140.28838 | 12162 ft | 313 kts | 82° |
| 2026-05-06 11:38 | 35.03004 | 140.31464 | 12156 ft | 313 kts | 82° |
| 2026-05-06 11:38 | 35.03353 | 140.34084 | 12160 ft | 313 kts | 82° |
| 2026-05-06 11:39 | 35.03702 | 140.36703 | 12156 ft | 312 kts | 82° |
| 2026-05-06 11:39 | 35.04048 | 140.39311 | 12153 ft | 311 kts | 82° |
| 2026-05-06 11:39 | 35.04391 | 140.41873 | 12144 ft | 308 kts | 79° |
| 2026-05-06 11:39 | 35.05161 | 140.44268 | 12149 ft | 302 kts | 52° |
| 2026-05-06 11:40 | 35.06671 | 140.46007 | 12167 ft | 299 kts | 25° |
| 2026-05-06 11:40 | 35.08604 | 140.46837 | 12168 ft | 293 kts | 0° |
| 2026-05-06 11:40 | 35.10592 | 140.46700 | 12171 ft | 282 kts | 340° |
| 2026-05-06 11:40 | 35.12365 | 140.45813 | 12156 ft | 271 kts | 320° |
| 2026-05-06 11:41 | 35.13867 | 140.44462 | 12166 ft | 268 kts | 316° |
| 2026-05-06 11:41 | 35.15318 | 140.43073 | 12159 ft | 268 kts | 316° |
| 2026-05-06 11:41 | 35.16777 | 140.41667 | 12042 ft | 265 kts | 316° |
| 2026-05-06 11:41 | 35.18223 | 140.40276 | 11756 ft | 264 kts | 316° |
| 2026-05-06 11:42 | 35.19671 | 140.38890 | 11452 ft | 263 kts | 316° |
| 2026-05-06 11:42 | 35.21112 | 140.37516 | 11141 ft | 262 kts | 316° |
| 2026-05-06 11:42 | 35.22545 | 140.36154 | 10839 ft | 260 kts | 316° |
| 2026-05-06 11:42 | 35.23974 | 140.34798 | 10571 ft | 259 kts | 316° |
| 2026-05-06 11:43 | 35.25384 | 140.33463 | 10408 ft | 254 kts | 316° |
| 2026-05-06 11:43 | 35.26777 | 140.32143 | 10264 ft | 254 kts | 316° |
| 2026-05-06 11:43 | 35.28180 | 140.30810 | 10131 ft | 257 kts | 316° |
| 2026-05-06 11:44 | 35.31036 | 140.28102 | 9804 ft | 259 kts | 316° |
| 2026-05-06 11:44 | 35.32457 | 140.26756 | 9648 ft | 257 kts | 316° |
| 2026-05-06 11:44 | 35.33867 | 140.25420 | 9502 ft | 256 kts | 316° |
| 2026-05-06 11:44 | 35.35271 | 140.24088 | 9356 ft | 254 kts | 316° |
| 2026-05-06 11:45 | 35.36675 | 140.22789 | 9239 ft | 253 kts | 323° |
| 2026-05-06 11:45 | 35.38384 | 140.22101 | 9171 ft | 269 kts | 351° |
| 2026-05-06 11:45 | 35.40286 | 140.22177 | 9174 ft | 277 kts | 358° |
| 2026-05-06 11:45 | 35.40934 | 140.22227 | 9173 ft | 278 kts | 358° |
| 2026-05-06 11:46 | 35.42244 | 140.22332 | 9164 ft | 280 kts | 358° |
| 2026-05-06 11:46 | 35.44184 | 140.22490 | 9162 ft | 279 kts | 358° |
| 2026-05-06 11:46 | 35.46118 | 140.22645 | 9154 ft | 278 kts | 358° |
| 2026-05-06 11:46 | 35.48047 | 140.22794 | 9149 ft | 277 kts | 358° |
| 2026-05-06 11:47 | 35.49946 | 140.22939 | 9149 ft | 276 kts | 358° |
| 2026-05-06 11:47 | 35.51858 | 140.23081 | 9146 ft | 275 kts | 358° |
| 2026-05-06 11:47 | 35.53764 | 140.23220 | 9148 ft | 274 kts | 358° |
| 2026-05-06 11:47 | 35.55665 | 140.23359 | 9142 ft | 273 kts | 358° |
| 2026-05-06 11:48 | 35.57564 | 140.23497 | 9143 ft | 273 kts | 358° |
| 2026-05-06 11:48 | 35.59455 | 140.23612 | 9059 ft | 269 kts | 353° |
| 2026-05-06 11:48 | 35.61232 | 140.23129 | 8663 ft | 259 kts | 333° |
| 2026-05-06 11:48 | 35.62929 | 140.22327 | 8271 ft | 262 kts | 334° |
| 2026-05-06 11:49 | 35.64660 | 140.21549 | 8168 ft | 268 kts | 335° |
| 2026-05-06 11:49 | 35.66405 | 140.20783 | 8164 ft | 268 kts | 335° |
| 2026-05-06 11:49 | 35.68157 | 140.20020 | 8134 ft | 265 kts | 335° |
| 2026-05-06 11:49 | 35.69780 | 140.19081 | 8109 ft | 252 kts | 315° |
| 2026-05-06 11:50 | 35.70826 | 140.17429 | 7807 ft | 244 kts | 290° |
| 2026-05-06 11:50 | 35.71418 | 140.15473 | 7442 ft | 245 kts | 285° |
| 2026-05-06 11:50 | 35.71967 | 140.13508 | 7277 ft | 239 kts | 285° |
| 2026-05-06 11:50 | 35.72504 | 140.11577 | 7219 ft | 240 kts | 285° |
| 2026-05-06 11:51 | 35.73052 | 140.09609 | 7189 ft | 246 kts | 285° |
| 2026-05-06 11:51 | 35.73615 | 140.07601 | 7153 ft | 248 kts | 285° |
| 2026-05-06 11:51 | 35.74179 | 140.05596 | 7149 ft | 247 kts | 285° |
| 2026-05-06 11:51 | 35.74739 | 140.03610 | 7142 ft | 246 kts | 285° |
| 2026-05-06 11:52 | 35.75298 | 140.01623 | 7136 ft | 245 kts | 285° |
| 2026-05-06 11:52 | 35.75856 | 139.99637 | 7131 ft | 244 kts | 285° |
| 2026-05-06 11:52 | 35.76402 | 139.97694 | 7137 ft | 243 kts | 285° |
| 2026-05-06 11:52 | 35.76955 | 139.95724 | 7061 ft | 243 kts | 285° |
| 2026-05-06 11:53 | 35.77509 | 139.93752 | 6810 ft | 244 kts | 285° |
| 2026-05-06 11:53 | 35.78062 | 139.91779 | 6459 ft | 246 kts | 285° |
| 2026-05-06 11:53 | 35.78612 | 139.89820 | 6258 ft | 242 kts | 285° |
| 2026-05-06 11:53 | 35.79152 | 139.87897 | 6191 ft | 239 kts | 285° |
| 2026-05-06 11:54 | 35.79700 | 139.85934 | 6168 ft | 245 kts | 285° |
| 2026-05-06 11:54 | 35.80260 | 139.83931 | 6150 ft | 247 kts | 285° |
| 2026-05-06 11:54 | 35.80819 | 139.81931 | 6141 ft | 247 kts | 285° |
| 2026-05-06 11:54 | 35.81296 | 139.79919 | 6135 ft | 242 kts | 278° |
| 2026-05-06 11:55 | 35.81587 | 139.77880 | 5968 ft | 241 kts | 276° |
| 2026-05-06 11:55 | 35.81855 | 139.75843 | 5661 ft | 241 kts | 276° |
| 2026-05-06 11:55 | 35.82023 | 139.73805 | 5288 ft | 236 kts | 261° |
| 2026-05-06 11:55 | 35.81528 | 139.71921 | 4898 ft | 235 kts | 241° |
| 2026-05-06 11:56 | 35.80751 | 139.70159 | 4617 ft | 233 kts | 240° |
| 2026-05-06 11:56 | 35.79988 | 139.68413 | 4404 ft | 229 kts | 240° |
| 2026-05-06 11:56 | 35.79243 | 139.66707 | 4235 ft | 223 kts | 240° |
| 2026-05-06 11:56 | 35.78326 | 139.65276 | 4098 ft | 207 kts | 212° |
| 2026-05-06 11:57 | 35.77007 | 139.64835 | 4010 ft | 194 kts | 174° |
| 2026-05-06 11:57 | 35.75747 | 139.65368 | 4067 ft | 199 kts | 161° |
| 2026-05-06 11:57 | 35.74501 | 139.66046 | 4070 ft | 189 kts | 158° |
| 2026-05-06 11:57 | 35.73374 | 139.66765 | 3841 ft | 175 kts | 155° |
| 2026-05-06 11:58 | 35.72360 | 139.67466 | 3635 ft | 166 kts | 155° |
| 2026-05-06 11:58 | 35.71329 | 139.68189 | 3428 ft | 172 kts | 155° |
| 2026-05-06 11:58 | 35.70337 | 139.68896 | 3182 ft | 157 kts | 154° |
| 2026-05-06 11:58 | 35.69445 | 139.69533 | 2958 ft | 143 kts | 155° |
| 2026-05-06 11:59 | 35.68598 | 139.70134 | 2791 ft | 140 kts | 155° |
| 2026-05-06 11:59 | 35.67757 | 139.70731 | 2620 ft | 138 kts | 155° |
| 2026-05-06 11:59 | 35.66938 | 139.71312 | 2425 ft | 134 kts | 155° |
| 2026-05-06 11:59 | 35.66127 | 139.71887 | 2252 ft | 136 kts | 154° |
| 2026-05-06 12:00 | 35.65297 | 139.72477 | 2082 ft | 138 kts | 154° |
| 2026-05-06 12:00 | 35.64463 | 139.73071 | 1877 ft | 138 kts | 154° |
| 2026-05-06 12:00 | 35.63646 | 139.73650 | 1697 ft | 135 kts | 154° |
| 2026-05-06 12:00 | 35.62836 | 139.74224 | 1524 ft | 134 kts | 154° |
| 2026-05-06 12:01 | 35.62023 | 139.74803 | 1340 ft | 136 kts | 153° |
| 2026-05-06 12:01 | 35.61206 | 139.75383 | 1151 ft | 136 kts | 153° |
| 2026-05-06 12:01 | 35.60382 | 139.75964 | 988 ft | 136 kts | 153° |
| 2026-05-06 12:01 | 35.59550 | 139.76550 | 808 ft | 139 kts | 151° |
| 2026-05-06 12:02 | 35.58726 | 139.77164 | 572 ft | 138 kts | 149° |
| 2026-05-06 12:02 | 35.57922 | 139.77755 | 365 ft | 135 kts | 154° |
| 2026-05-06 12:02 | 35.57097 | 139.78278 | 259 ft | 135 kts | 152° |
| 2026-05-06 12:02 | 35.56268 | 139.78895 | 63 ft | 141 kts | 151° |
| 2026-05-06 12:03 | 35.55459 | 139.79467 | 30 ft | 121 kts | 152° |
| 2026-05-06 12:03 | 35.54826 | 139.79906 | 29 ft | 87 kts | 149° |
| 2026-05-06 12:03 | 35.54426 | 139.80184 | 29 ft | 41 kts | 155° |
| 2026-05-06 12:03 | 35.54301 | 139.80177 | 28 ft | 7 kts | 242° |
| 2026-05-06 12:04 | 35.54279 | 139.80122 | 28 ft | 7 kts | 243° |
| 2026-05-06 12:04 | 35.54256 | 139.80069 | 28 ft | 7 kts | 242° |
| 2026-05-06 12:04 | 35.54239 | 139.80034 | 28 ft | 7 kts | 238° |
| 2026-05-06 12:04 | 35.54188 | 139.79983 | 28 ft | 12 kts | 170° |
| 2026-05-06 12:05 | 35.54105 | 139.80037 | 28 ft | 14 kts | 151° |
| 2026-05-06 12:05 | 35.54019 | 139.80096 | 28 ft | 14 kts | 151° |
| 2026-05-06 12:05 | 35.53962 | 139.80136 | 28 ft | 14 kts | 150° |
| 2026-05-06 12:05 | 35.53873 | 139.80186 | 28 ft | 14 kts | 170° |
| 2026-05-06 12:06 | 35.53775 | 139.80099 | 28 ft | 14 kts | 238° |
| 2026-05-06 12:06 | 35.53741 | 139.80029 | 28 ft | 14 kts | 239° |
| 2026-05-06 12:06 | 35.53692 | 139.79925 | 28 ft | 14 kts | 239° |
| 2026-05-06 12:06 | 35.53639 | 139.79814 | 28 ft | 16 kts | 239° |
| 2026-05-06 12:07 | 35.53583 | 139.79698 | 28 ft | 16 kts | 239° |
| 2026-05-06 12:07 | 35.53527 | 139.79577 | 28 ft | 16 kts | 240° |
| 2026-05-06 12:07 | 35.53470 | 139.79457 | 28 ft | 16 kts | 239° |
| 2026-05-06 12:07 | 35.53412 | 139.79338 | 28 ft | 16 kts | 239° |
| 2026-05-06 12:08 | 35.53377 | 139.79209 | 28 ft | 16 kts | 274° |
| 2026-05-06 12:08 | 35.53464 | 139.79091 | 28 ft | 31 kts | 329° |
| 2026-05-06 12:08 | 35.53716 | 139.78911 | 28 ft | 46 kts | 330° |
| 2026-05-06 12:08 | 35.53978 | 139.78720 | 28 ft | 41 kts | 329° |
| 2026-05-06 12:09 | 35.54194 | 139.78569 | 28 ft | 28 kts | 330° |
| 2026-05-06 12:09 | 35.54309 | 139.78489 | 27 ft | 18 kts | 329° |
| 2026-05-06 12:09 | 35.54418 | 139.78410 | 28 ft | 18 kts | 328° |
| 2026-05-06 12:09 | 35.54528 | 139.78332 | 28 ft | 18 kts | 341° |
| 2026-05-06 12:10 | 35.54621 | 139.78376 | 28 ft | 15 kts | 47° |
| 2026-05-06 12:10 | 35.54645 | 139.78418 | 28 ft | 0 kts | 57° |